Terminal Aerodrome Forecast
Issued by NWS

Home | Current Version | Previous Version | Graphics & Text | Print | Product List | Glossary On
Versions: 1 2 3 4 5 6 7 8 9 10 11 12 13 14 15 16 17 18 19 20 21 22 23 24 25 26 27 28 29 30 31 32 33 34 35 36 37 38 39 40 41 42 43 44 45 46
000
FTUS43 KGRB 170411 AAB
TAFRHI
TAF AMD
KRHI 170411Z 1704/1724 11004KT P6SM SCT005 OVC008
      TEMPO 1704/1708 6SM BR OVC005
     FM170800 VRB03KT P6SM OVC004
      TEMPO 1712/1716 3SM BR OVC009
     FM171600 VRB03KT P6SM OVC012=

USA.gov is the U.S. government's official web portal to all federal, state and local government web resources and services.